sensor_id;sensor_type;location;lat;lon;timestamp;P1;durP1;ratioP1;P2;durP2;ratioP2
17872;SDS011;36318;42.620;23.338;2022-08-30T00:01:56;11.33;;;10.20;;
17872;SDS011;36318;42.620;23.338;2022-08-30T00:04:23;14.40;;;10.23;;
17872;SDS011;36318;42.620;23.338;2022-08-30T00:06:50;12.23;;;10.07;;
17872;SDS011;36318;42.620;23.338;2022-08-30T00:09:17;12.97;;;10.10;;
17872;SDS011;36318;42.620;23.338;2022-08-30T00:11:44;14.07;;;10.73;;
17872;SDS011;36318;42.620;23.338;2022-08-30T00:14:12;11.47;;;10.37;;
17872;SDS011;36318;42.620;23.338;2022-08-30T00:16:39;11.70;;;10.50;;
17872;SDS011;36318;42.620;23.338;2022-08-30T00:19:06;11.53;;;9.83;;
17872;SDS011;36318;42.620;23.338;2022-08-30T00:21:33;15.07;;;9.90;;
17872;SDS011;36318;42.620;23.338;2022-08-30T00:23:59;16.37;;;10.60;;
17872;SDS011;36318;42.620;23.338;2022-08-30T00:26:26;11.87;;;9.93;;
17872;SDS011;36318;42.620;23.338;2022-08-30T00:28:53;11.10;;;10.00;;
17872;SDS011;36318;42.620;23.338;2022-08-30T00:31:21;13.23;;;10.47;;
17872;SDS011;36318;42.620;23.338;2022-08-30T00:33:48;11.60;;;10.27;;
17872;SDS011;36318;42.620;23.338;2022-08-30T00:36:15;11.30;;;9.60;;
17872;SDS011;36318;42.620;23.338;2022-08-30T00:38:42;11.70;;;10.30;;
17872;SDS011;36318;42.620;23.338;2022-08-30T00:41:09;13.87;;;11.20;;
17872;SDS011;36318;42.620;23.338;2022-08-30T00:43:36;13.37;;;10.67;;
17872;SDS011;36318;42.620;23.338;2022-08-30T00:46:03;13.40;;;11.13;;
17872;SDS011;36318;42.620;23.338;2022-08-30T00:48:33;18.30;;;11.43;;
17872;SDS011;36318;42.620;23.338;2022-08-30T00:51:04;14.33;;;11.20;;
17872;SDS011;36318;42.620;23.338;2022-08-30T00:53:35;21.27;;;11.60;;
17872;SDS011;36318;42.620;23.338;2022-08-30T00:56:04;13.23;;;10.60;;
17872;SDS011;36318;42.620;23.338;2022-08-30T00:58:33;22.50;;;11.53;;
17872;SDS011;36318;42.620;23.338;2022-08-30T01:01:02;12.30;;;11.17;;
17872;SDS011;36318;42.620;23.338;2022-08-30T01:03:31;17.43;;;11.37;;
17872;SDS011;36318;42.620;23.338;2022-08-30T01:06:00;12.70;;;11.40;;
17872;SDS011;36318;42.620;23.338;2022-08-30T01:08:28;14.90;;;12.00;;
17872;SDS011;36318;42.620;23.338;2022-08-30T01:10:55;16.67;;;11.93;;
17872;SDS011;36318;42.620;23.338;2022-08-30T01:13:23;13.97;;;11.40;;
17872;SDS011;36318;42.620;23.338;2022-08-30T01:15:52;12.33;;;10.83;;
17872;SDS011;36318;42.620;23.338;2022-08-30T01:18:19;14.40;;;12.23;;
17872;SDS011;36318;42.620;23.338;2022-08-30T01:20:50;19.53;;;12.20;;
17872;SDS011;36318;42.620;23.338;2022-08-30T01:23:29;14.30;;;12.00;;
17872;SDS011;36318;42.620;23.338;2022-08-30T01:25:57;14.70;;;11.43;;
17872;SDS011;36318;42.620;23.338;2022-08-30T01:28:25;14.83;;;12.03;;
17872;SDS011;36318;42.620;23.338;2022-08-30T01:30:54;16.77;;;13.07;;
17872;SDS011;36318;42.620;23.338;2022-08-30T01:33:21;13.40;;;11.87;;
17872;SDS011;36318;42.620;23.338;2022-08-30T01:35:50;13.30;;;12.10;;
17872;SDS011;36318;42.620;23.338;2022-08-30T01:38:19;15.97;;;13.07;;
17872;SDS011;36318;42.620;23.338;2022-08-30T01:40:49;20.87;;;13.23;;
17872;SDS011;36318;42.620;23.338;2022-08-30T01:43:21;15.57;;;12.37;;
17872;SDS011;36318;42.620;23.338;2022-08-30T01:45:48;14.43;;;12.93;;
17872;SDS011;36318;42.620;23.338;2022-08-30T01:48:15;14.43;;;12.93;;
17872;SDS011;36318;42.620;23.338;2022-08-30T01:50:42;14.80;;;12.70;;
17872;SDS011;36318;42.620;23.338;2022-08-30T01:53:08;14.20;;;12.70;;
17872;SDS011;36318;42.620;23.338;2022-08-30T01:55:35;15.83;;;12.50;;
17872;SDS011;36318;42.620;23.338;2022-08-30T01:58:04;15.63;;;12.33;;
17872;SDS011;36318;42.620;23.338;2022-08-30T02:00:31;14.97;;;13.47;;
17872;SDS011;36318;42.620;23.338;2022-08-30T02:02:58;15.50;;;13.47;;
17872;SDS011;36318;42.620;23.338;2022-08-30T02:05:25;14.80;;;12.90;;
17872;SDS011;36318;42.620;23.338;2022-08-30T02:07:51;15.50;;;13.90;;
17872;SDS011;36318;42.620;23.338;2022-08-30T02:10:19;17.43;;;13.13;;
17872;SDS011;36318;42.620;23.338;2022-08-30T02:12:46;17.17;;;13.93;;
17872;SDS011;36318;42.620;23.338;2022-08-30T02:15:14;16.57;;;13.77;;
17872;SDS011;36318;42.620;23.338;2022-08-30T02:17:41;15.27;;;13.67;;
17872;SDS011;36318;42.620;23.338;2022-08-30T02:20:09;16.93;;;14.40;;
17872;SDS011;36318;42.620;23.338;2022-08-30T02:22:35;15.30;;;13.47;;
17872;SDS011;36318;42.620;23.338;2022-08-30T02:25:03;18.33;;;13.93;;
17872;SDS011;36318;42.620;23.338;2022-08-30T02:27:30;17.60;;;13.67;;
17872;SDS011;36318;42.620;23.338;2022-08-30T02:29:57;17.43;;;13.93;;
17872;SDS011;36318;42.620;23.338;2022-08-30T02:32:25;16.23;;;13.13;;
17872;SDS011;36318;42.620;23.338;2022-08-30T02:34:52;14.47;;;12.50;;
17872;SDS011;36318;42.620;23.338;2022-08-30T02:37:19;21.87;;;12.87;;
17872;SDS011;36318;42.620;23.338;2022-08-30T02:39:46;18.87;;;12.33;;
17872;SDS011;36318;42.620;23.338;2022-08-30T02:42:13;13.30;;;11.87;;
17872;SDS011;36318;42.620;23.338;2022-08-30T02:44:40;15.93;;;12.53;;
17872;SDS011;36318;42.620;23.338;2022-08-30T02:47:07;18.00;;;12.43;;
17872;SDS011;36318;42.620;23.338;2022-08-30T02:49:35;15.80;;;12.67;;
17872;SDS011;36318;42.620;23.338;2022-08-30T02:52:03;14.50;;;11.50;;
17872;SDS011;36318;42.620;23.338;2022-08-30T02:54:30;13.67;;;12.27;;
17872;SDS011;36318;42.620;23.338;2022-08-30T02:56:58;18.07;;;12.70;;
17872;SDS011;36318;42.620;23.338;2022-08-30T02:59:28;14.23;;;12.43;;
17872;SDS011;36318;42.620;23.338;2022-08-30T03:01:55;16.80;;;12.43;;
17872;SDS011;36318;42.620;23.338;2022-08-30T03:04:22;14.47;;;12.67;;
17872;SDS011;36318;42.620;23.338;2022-08-30T03:06:50;18.53;;;13.37;;
17872;SDS011;36318;42.620;23.338;2022-08-30T03:09:17;18.07;;;12.83;;
17872;SDS011;36318;42.620;23.338;2022-08-30T03:11:44;13.87;;;12.50;;
17872;SDS011;36318;42.620;23.338;2022-08-30T03:14:11;21.20;;;12.63;;
17872;SDS011;36318;42.620;23.338;2022-08-30T03:16:38;18.70;;;13.87;;
17872;SDS011;36318;42.620;23.338;2022-08-30T03:19:05;15.57;;;13.27;;
17872;SDS011;36318;42.620;23.338;2022-08-30T03:21:31;18.50;;;14.50;;
17872;SDS011;36318;42.620;23.338;2022-08-30T03:24:00;15.93;;;13.33;;
17872;SDS011;36318;42.620;23.338;2022-08-30T03:26:26;15.83;;;14.23;;
17872;SDS011;36318;42.620;23.338;2022-08-30T03:28:53;19.53;;;14.97;;
17872;SDS011;36318;42.620;23.338;2022-08-30T03:31:20;18.17;;;13.83;;
17872;SDS011;36318;42.620;23.338;2022-08-30T03:33:47;16.50;;;15.00;;
17872;SDS011;36318;42.620;23.338;2022-08-30T03:36:14;20.53;;;15.80;;
17872;SDS011;36318;42.620;23.338;2022-08-30T03:38:41;16.20;;;14.60;;
17872;SDS011;36318;42.620;23.338;2022-08-30T03:41:09;18.60;;;15.67;;
17872;SDS011;36318;42.620;23.338;2022-08-30T03:43:36;17.80;;;16.07;;
17872;SDS011;36318;42.620;23.338;2022-08-30T03:46:03;17.93;;;16.10;;
17872;SDS011;36318;42.620;23.338;2022-08-30T03:48:31;19.70;;;17.50;;
17872;SDS011;36318;42.620;23.338;2022-08-30T03:50:58;19.50;;;17.60;;
17872;SDS011;36318;42.620;23.338;2022-08-30T03:53:25;20.20;;;18.23;;
17872;SDS011;36318;42.620;23.338;2022-08-30T03:55:52;19.30;;;16.93;;
17872;SDS011;36318;42.620;23.338;2022-08-30T03:58:20;22.83;;;16.93;;
17872;SDS011;36318;42.620;23.338;2022-08-30T04:00:47;18.70;;;16.90;;
17872;SDS011;36318;42.620;23.338;2022-08-30T04:03:14;20.60;;;18.47;;
17872;SDS011;36318;42.620;23.338;2022-08-30T04:05:42;20.57;;;17.73;;
17872;SDS011;36318;42.620;23.338;2022-08-30T04:08:10;21.70;;;17.73;;
17872;SDS011;36318;42.620;23.338;2022-08-30T04:10:36;21.60;;;19.40;;
17872;SDS011;36318;42.620;23.338;2022-08-30T04:13:03;21.63;;;18.67;;
17872;SDS011;36318;42.620;23.338;2022-08-30T04:15:31;20.43;;;18.53;;
17872;SDS011;36318;42.620;23.338;2022-08-30T04:17:58;20.17;;;18.13;;
17872;SDS011;36318;42.620;23.338;2022-08-30T04:20:25;22.77;;;18.60;;
17872;SDS011;36318;42.620;23.338;2022-08-30T04:22:52;22.37;;;18.20;;
17872;SDS011;36318;42.620;23.338;2022-08-30T04:25:19;19.17;;;17.30;;
17872;SDS011;36318;42.620;23.338;2022-08-30T04:27:46;22.93;;;18.87;;
17872;SDS011;36318;42.620;23.338;2022-08-30T04:30:14;22.67;;;19.20;;
17872;SDS011;36318;42.620;23.338;2022-08-30T04:32:43;22.30;;;18.83;;
17872;SDS011;36318;42.620;23.338;2022-08-30T04:35:10;22.10;;;19.50;;
17872;SDS011;36318;42.620;23.338;2022-08-30T04:37:38;23.10;;;19.90;;
17872;SDS011;36318;42.620;23.338;2022-08-30T04:40:05;23.73;;;18.30;;
17872;SDS011;36318;42.620;23.338;2022-08-30T04:42:34;20.57;;;18.43;;
17872;SDS011;36318;42.620;23.338;2022-08-30T04:45:02;22.37;;;17.47;;
17872;SDS011;36318;42.620;23.338;2022-08-30T04:47:31;23.93;;;18.17;;
17872;SDS011;36318;42.620;23.338;2022-08-30T04:49:59;21.13;;;16.70;;
17872;SDS011;36318;42.620;23.338;2022-08-30T04:52:27;18.67;;;16.30;;
17872;SDS011;36318;42.620;23.338;2022-08-30T04:54:54;19.00;;;16.47;;
17872;SDS011;36318;42.620;23.338;2022-08-30T04:57:22;18.27;;;16.30;;
17872;SDS011;36318;42.620;23.338;2022-08-30T04:59:49;18.00;;;15.33;;
17872;SDS011;36318;42.620;23.338;2022-08-30T05:02:16;18.87;;;15.47;;
17872;SDS011;36318;42.620;23.338;2022-08-30T05:04:43;19.13;;;15.17;;
17872;SDS011;36318;42.620;23.338;2022-08-30T05:07:25;16.83;;;15.17;;
17872;SDS011;36318;42.620;23.338;2022-08-30T05:09:52;15.60;;;14.00;;
17872;SDS011;36318;42.620;23.338;2022-08-30T05:12:19;40.03;;;35.70;;
17872;SDS011;36318;42.620;23.338;2022-08-30T05:14:46;26.67;;;21.33;;
17872;SDS011;36318;42.620;23.338;2022-08-30T05:17:12;22.57;;;16.87;;
17872;SDS011;36318;42.620;23.338;2022-08-30T05:19:39;18.03;;;14.03;;
17872;SDS011;36318;42.620;23.338;2022-08-30T05:22:06;18.50;;;13.73;;
17872;SDS011;36318;42.620;23.338;2022-08-30T05:24:35;18.93;;;14.53;;
17872;SDS011;36318;42.620;23.338;2022-08-30T05:27:02;20.83;;;15.20;;
17872;SDS011;36318;42.620;23.338;2022-08-30T05:29:29;17.03;;;14.73;;
17872;SDS011;36318;42.620;23.338;2022-08-30T05:31:56;16.40;;;14.70;;
17872;SDS011;36318;42.620;23.338;2022-08-30T05:34:23;20.63;;;15.17;;
17872;SDS011;36318;42.620;23.338;2022-08-30T05:36:50;16.77;;;14.73;;
17872;SDS011;36318;42.620;23.338;2022-08-30T05:39:17;17.27;;;14.60;;
17872;SDS011;36318;42.620;23.338;2022-08-30T05:41:46;17.67;;;15.50;;
17872;SDS011;36318;42.620;23.338;2022-08-30T05:44:13;19.90;;;15.13;;
17872;SDS011;36318;42.620;23.338;2022-08-30T05:46:40;16.87;;;15.17;;
17872;SDS011;36318;42.620;23.338;2022-08-30T05:49:10;17.50;;;15.67;;
17872;SDS011;36318;42.620;23.338;2022-08-30T05:51:37;17.90;;;16.00;;
17872;SDS011;36318;42.620;23.338;2022-08-30T05:54:04;21.70;;;15.23;;
17872;SDS011;36318;42.620;23.338;2022-08-30T05:56:32;17.83;;;15.33;;
17872;SDS011;36318;42.620;23.338;2022-08-30T05:59:03;22.77;;;14.60;;
17872;SDS011;36318;42.620;23.338;2022-08-30T06:01:32;21.33;;;16.13;;
17872;SDS011;36318;42.620;23.338;2022-08-30T06:04:00;17.17;;;14.47;;
17872;SDS011;36318;42.620;23.338;2022-08-30T06:06:29;15.90;;;14.33;;
17872;SDS011;36318;42.620;23.338;2022-08-30T06:08:57;17.07;;;15.23;;
17872;SDS011;36318;42.620;23.338;2022-08-30T06:11:24;19.13;;;15.60;;
17872;SDS011;36318;42.620;23.338;2022-08-30T06:13:52;16.97;;;14.83;;
17872;SDS011;36318;42.620;23.338;2022-08-30T06:16:22;20.77;;;15.90;;
17872;SDS011;36318;42.620;23.338;2022-08-30T06:18:51;17.00;;;15.43;;
17872;SDS011;36318;42.620;23.338;2022-08-30T06:21:20;20.57;;;16.10;;
17872;SDS011;36318;42.620;23.338;2022-08-30T06:23:49;19.80;;;16.30;;
17872;SDS011;36318;42.620;23.338;2022-08-30T06:26:16;18.00;;;15.40;;
17872;SDS011;36318;42.620;23.338;2022-08-30T06:28:43;22.23;;;15.47;;
17872;SDS011;36318;42.620;23.338;2022-08-30T06:31:11;20.33;;;15.50;;
17872;SDS011;36318;42.620;23.338;2022-08-30T06:33:41;20.10;;;15.60;;
17872;SDS011;36318;42.620;23.338;2022-08-30T06:36:09;19.07;;;15.57;;
17872;SDS011;36318;42.620;23.338;2022-08-30T06:38:38;19.50;;;16.00;;
17872;SDS011;36318;42.620;23.338;2022-08-30T06:41:05;24.97;;;15.40;;
17872;SDS011;36318;42.620;23.338;2022-08-30T06:43:33;19.97;;;15.00;;
17872;SDS011;36318;42.620;23.338;2022-08-30T06:46:00;23.97;;;17.90;;
17872;SDS011;36318;42.620;23.338;2022-08-30T06:48:28;23.63;;;18.60;;
17872;SDS011;36318;42.620;23.338;2022-08-30T06:50:56;24.23;;;17.33;;
17872;SDS011;36318;42.620;23.338;2022-08-30T06:53:23;22.27;;;18.07;;
17872;SDS011;36318;42.620;23.338;2022-08-30T06:55:54;25.50;;;16.80;;
17872;SDS011;36318;42.620;23.338;2022-08-30T06:58:22;20.13;;;15.93;;
17872;SDS011;36318;42.620;23.338;2022-08-30T07:00:50;16.70;;;14.90;;
17872;SDS011;36318;42.620;23.338;2022-08-30T07:03:16;23.13;;;16.00;;
17872;SDS011;36318;42.620;23.338;2022-08-30T07:05:43;25.50;;;15.83;;
17872;SDS011;36318;42.620;23.338;2022-08-30T07:08:11;18.63;;;16.53;;
17872;SDS011;36318;42.620;23.338;2022-08-30T07:10:38;21.83;;;16.37;;
17872;SDS011;36318;42.620;23.338;2022-08-30T07:13:06;21.33;;;16.70;;
17872;SDS011;36318;42.620;23.338;2022-08-30T07:15:33;25.53;;;16.67;;
17872;SDS011;36318;42.620;23.338;2022-08-30T07:18:01;25.57;;;16.40;;
17872;SDS011;36318;42.620;23.338;2022-08-30T07:20:45;24.17;;;16.90;;
17872;SDS011;36318;42.620;23.338;2022-08-30T07:23:13;17.80;;;15.93;;
17872;SDS011;36318;42.620;23.338;2022-08-30T07:25:40;20.07;;;15.70;;
17872;SDS011;36318;42.620;23.338;2022-08-30T07:28:08;19.60;;;15.37;;
17872;SDS011;36318;42.620;23.338;2022-08-30T07:30:35;21.33;;;15.70;;
17872;SDS011;36318;42.620;23.338;2022-08-30T07:33:03;18.27;;;14.47;;
17872;SDS011;36318;42.620;23.338;2022-08-30T07:35:30;17.83;;;14.30;;
17872;SDS011;36318;42.620;23.338;2022-08-30T07:37:57;20.67;;;15.10;;
17872;SDS011;36318;42.620;23.338;2022-08-30T07:40:26;18.63;;;14.93;;
17872;SDS011;36318;42.620;23.338;2022-08-30T07:42:52;16.77;;;14.80;;
17872;SDS011;36318;42.620;23.338;2022-08-30T07:45:19;18.80;;;16.90;;
17872;SDS011;36318;42.620;23.338;2022-08-30T07:47:46;23.37;;;16.27;;
17872;SDS011;36318;42.620;23.338;2022-08-30T07:50:13;20.23;;;16.90;;
17872;SDS011;36318;42.620;23.338;2022-08-30T07:52:40;19.57;;;16.53;;
17872;SDS011;36318;42.620;23.338;2022-08-30T07:55:07;18.80;;;16.67;;
17872;SDS011;36318;42.620;23.338;2022-08-30T07:57:36;16.83;;;14.93;;
17872;SDS011;36318;42.620;23.338;2022-08-30T08:00:03;19.40;;;15.30;;
17872;SDS011;36318;42.620;23.338;2022-08-30T08:02:30;17.40;;;15.23;;
17872;SDS011;36318;42.620;23.338;2022-08-30T08:04:58;28.20;;;14.40;;
17872;SDS011;36318;42.620;23.338;2022-08-30T08:07:25;19.53;;;14.43;;
17872;SDS011;36318;42.620;23.338;2022-08-30T08:09:51;15.53;;;13.90;;
17872;SDS011;36318;42.620;23.338;2022-08-30T08:12:18;17.80;;;13.60;;
17872;SDS011;36318;42.620;23.338;2022-08-30T08:14:46;16.40;;;13.57;;
17872;SDS011;36318;42.620;23.338;2022-08-30T08:17:14;17.77;;;14.07;;
17872;SDS011;36318;42.620;23.338;2022-08-30T08:19:40;15.70;;;14.03;;
17872;SDS011;36318;42.620;23.338;2022-08-30T08:22:07;20.23;;;15.13;;
17872;SDS011;36318;42.620;23.338;2022-08-30T08:24:34;16.90;;;15.07;;
17872;SDS011;36318;42.620;23.338;2022-08-30T08:27:01;22.90;;;14.53;;
17872;SDS011;36318;42.620;23.338;2022-08-30T08:29:28;20.27;;;15.37;;
17872;SDS011;36318;42.620;23.338;2022-08-30T08:31:56;17.67;;;15.40;;
17872;SDS011;36318;42.620;23.338;2022-08-30T08:34:24;16.37;;;14.80;;
17872;SDS011;36318;42.620;23.338;2022-08-30T08:36:51;18.70;;;15.20;;
17872;SDS011;36318;42.620;23.338;2022-08-30T08:39:19;21.43;;;16.87;;
17872;SDS011;36318;42.620;23.338;2022-08-30T08:41:49;20.30;;;16.47;;
17872;SDS011;36318;42.620;23.338;2022-08-30T08:44:27;19.23;;;15.17;;
17872;SDS011;36318;42.620;23.338;2022-08-30T08:47:08;16.50;;;14.77;;
17872;SDS011;36318;42.620;23.338;2022-08-30T08:49:38;16.03;;;14.47;;
17872;SDS011;36318;42.620;23.338;2022-08-30T08:52:07;14.70;;;13.30;;
17872;SDS011;36318;42.620;23.338;2022-08-30T08:54:58;14.20;;;12.87;;
17872;SDS011;36318;42.620;23.338;2022-08-30T08:57:35;15.80;;;12.30;;
17872;SDS011;36318;42.620;23.338;2022-08-30T09:00:03;16.03;;;12.83;;
17872;SDS011;36318;42.620;23.338;2022-08-30T09:02:35;17.37;;;11.40;;
17872;SDS011;36318;42.620;23.338;2022-08-30T09:05:07;17.10;;;11.60;;
17872;SDS011;36318;42.620;23.338;2022-08-30T09:07:39;13.10;;;11.23;;
17872;SDS011;36318;42.620;23.338;2022-08-30T09:10:09;13.63;;;10.60;;
17872;SDS011;36318;42.620;23.338;2022-08-30T09:12:36;13.60;;;9.57;;
17872;SDS011;36318;42.620;23.338;2022-08-30T09:15:05;18.10;;;9.63;;
17872;SDS011;36318;42.620;23.338;2022-08-30T09:17:48;12.27;;;9.73;;
17872;SDS011;36318;42.620;23.338;2022-08-30T09:20:23;10.63;;;9.10;;
17872;SDS011;36318;42.620;23.338;2022-08-30T09:22:52;16.80;;;9.10;;
17872;SDS011;36318;42.620;23.338;2022-08-30T09:25:20;10.05;;;7.28;;
17872;SDS011;36318;42.620;23.338;2022-08-30T09:27:50;7.22;;;6.32;;
17872;SDS011;36318;42.620;23.338;2022-08-30T09:30:19;7.32;;;6.53;;
17872;SDS011;36318;42.620;23.338;2022-08-30T09:32:53;13.73;;;6.70;;
17872;SDS011;36318;42.620;23.338;2022-08-30T09:35:21;7.93;;;7.00;;
17872;SDS011;36318;42.620;23.338;2022-08-30T09:37:53;10.43;;;7.57;;
17872;SDS011;36318;42.620;23.338;2022-08-30T09:40:26;9.07;;;7.28;;
17872;SDS011;36318;42.620;23.338;2022-08-30T09:43:05;8.88;;;7.53;;
17872;SDS011;36318;42.620;23.338;2022-08-30T09:45:35;15.80;;;7.90;;
17872;SDS011;36318;42.620;23.338;2022-08-30T09:48:21;11.50;;;7.97;;
17872;SDS011;36318;42.620;23.338;2022-08-30T09:50:55;8.70;;;7.78;;
17872;SDS011;36318;42.620;23.338;2022-08-30T09:53:35;12.13;;;7.65;;
17872;SDS011;36318;42.620;23.338;2022-08-30T09:56:09;9.27;;;8.32;;
17872;SDS011;36318;42.620;23.338;2022-08-30T09:58:48;11.93;;;8.02;;
17872;SDS011;36318;42.620;23.338;2022-08-30T10:01:49;12.45;;;8.85;;
17872;SDS011;36318;42.620;23.338;2022-08-30T10:04:23;13.93;;;9.02;;
17872;SDS011;36318;42.620;23.338;2022-08-30T10:07:00;9.18;;;7.28;;
17872;SDS011;36318;42.620;23.338;2022-08-30T10:09:34;12.73;;;7.25;;
17872;SDS011;36318;42.620;23.338;2022-08-30T10:12:10;12.68;;;7.35;;
17872;SDS011;36318;42.620;23.338;2022-08-30T10:14:50;11.02;;;7.40;;
17872;SDS011;36318;42.620;23.338;2022-08-30T10:17:25;10.23;;;8.02;;
17872;SDS011;36318;42.620;23.338;2022-08-30T10:20:10;12.93;;;7.68;;
17872;SDS011;36318;42.620;23.338;2022-08-30T10:22:45;8.70;;;7.70;;
17872;SDS011;36318;42.620;23.338;2022-08-30T10:25:16;13.75;;;8.93;;
17872;SDS011;36318;42.620;23.338;2022-08-30T10:27:49;10.70;;;8.52;;
17872;SDS011;36318;42.620;23.338;2022-08-30T10:30:21;12.60;;;8.70;;
17872;SDS011;36318;42.620;23.338;2022-08-30T10:32:50;12.35;;;9.00;;
17872;SDS011;36318;42.620;23.338;2022-08-30T10:35:22;12.70;;;8.73;;
17872;SDS011;36318;42.620;23.338;2022-08-30T10:37:53;11.50;;;8.90;;
17872;SDS011;36318;42.620;23.338;2022-08-30T10:40:25;11.23;;;8.50;;
17872;SDS011;36318;42.620;23.338;2022-08-30T10:43:13;10.13;;;8.80;;
17872;SDS011;36318;42.620;23.338;2022-08-30T10:45:47;15.02;;;9.23;;
17872;SDS011;36318;42.620;23.338;2022-08-30T10:48:19;11.90;;;10.10;;
17872;SDS011;36318;42.620;23.338;2022-08-30T10:50:53;13.82;;;11.50;;
17872;SDS011;36318;42.620;23.338;2022-08-30T10:53:23;14.70;;;12.38;;
17872;SDS011;36318;42.620;23.338;2022-08-30T10:55:59;22.33;;;12.55;;
17872;SDS011;36318;42.620;23.338;2022-08-30T10:58:28;18.80;;;12.25;;
17872;SDS011;36318;42.620;23.338;2022-08-30T11:01:10;17.70;;;12.80;;
17872;SDS011;36318;42.620;23.338;2022-08-30T11:07:00;18.75;;;12.30;;
17872;SDS011;36318;42.620;23.338;2022-08-30T11:09:40;15.35;;;11.13;;
17872;SDS011;36318;42.620;23.338;2022-08-30T11:12:30;14.60;;;11.20;;
17872;SDS011;36318;42.620;23.338;2022-08-30T11:15:09;22.88;;;11.80;;
17872;SDS011;36318;42.620;23.338;2022-08-30T11:17:43;21.77;;;11.68;;
17872;SDS011;36318;42.620;23.338;2022-08-30T11:20:21;19.65;;;10.98;;
17872;SDS011;36318;42.620;23.338;2022-08-30T11:23:13;15.52;;;10.40;;
17872;SDS011;36318;42.620;23.338;2022-08-30T11:25:50;18.80;;;10.73;;
17872;SDS011;36318;42.620;23.338;2022-08-30T11:31:35;12.02;;;10.25;;
17872;SDS011;36318;42.620;23.338;2022-08-30T11:34:06;16.58;;;9.80;;
17872;SDS011;36318;42.620;23.338;2022-08-30T11:39:41;13.93;;;10.75;;
17872;SDS011;36318;42.620;23.338;2022-08-30T11:42:36;20.13;;;10.80;;
17872;SDS011;36318;42.620;23.338;2022-08-30T11:51:11;13.82;;;8.88;;
17872;SDS011;36318;42.620;23.338;2022-08-30T11:54:01;13.02;;;9.60;;
17872;SDS011;36318;42.620;23.338;2022-08-30T11:56:41;16.17;;;8.80;;
17872;SDS011;36318;42.620;23.338;2022-08-30T11:59:18;12.25;;;8.95;;
17872;SDS011;36318;42.620;23.338;2022-08-30T12:01:54;10.57;;;8.82;;
17872;SDS011;36318;42.620;23.338;2022-08-30T12:04:26;17.15;;;9.23;;
17872;SDS011;36318;42.620;23.338;2022-08-30T12:07:02;13.18;;;9.55;;
17872;SDS011;36318;42.620;23.338;2022-08-30T12:18:25;10.15;;;8.85;;
17872;SDS011;36318;42.620;23.338;2022-08-30T12:20:58;14.73;;;9.70;;
17872;SDS011;36318;42.620;23.338;2022-08-30T12:23:35;12.75;;;9.95;;
17872;SDS011;36318;42.620;23.338;2022-08-30T12:26:09;11.52;;;9.77;;
17872;SDS011;36318;42.620;23.338;2022-08-30T12:28:40;14.32;;;8.88;;
17872;SDS011;36318;42.620;23.338;2022-08-30T12:31:10;13.07;;;10.00;;
17872;SDS011;36318;42.620;23.338;2022-08-30T12:33:40;17.02;;;10.00;;
17872;SDS011;36318;42.620;23.338;2022-08-30T12:36:13;10.70;;;9.60;;
17872;SDS011;36318;42.620;23.338;2022-08-30T12:38:41;11.40;;;9.82;;
17872;SDS011;36318;42.620;23.338;2022-08-30T12:41:15;12.57;;;9.43;;
17872;SDS011;36318;42.620;23.338;2022-08-30T12:43:48;13.38;;;9.48;;
17872;SDS011;36318;42.620;23.338;2022-08-30T12:46:17;13.85;;;9.63;;
17872;SDS011;36318;42.620;23.338;2022-08-30T12:48:46;14.32;;;10.30;;
17872;SDS011;36318;42.620;23.338;2022-08-30T12:51:28;11.93;;;9.60;;
17872;SDS011;36318;42.620;23.338;2022-08-30T12:54:04;19.60;;;9.77;;
17872;SDS011;36318;42.620;23.338;2022-08-30T12:56:44;17.45;;;9.65;;
17872;SDS011;36318;42.620;23.338;2022-08-30T13:02:17;13.40;;;9.77;;
17872;SDS011;36318;42.620;23.338;2022-08-30T13:04:47;15.77;;;10.38;;
17872;SDS011;36318;42.620;23.338;2022-08-30T13:07:29;14.90;;;10.30;;
17872;SDS011;36318;42.620;23.338;2022-08-30T13:09:59;14.43;;;10.48;;
17872;SDS011;36318;42.620;23.338;2022-08-30T13:12:30;14.77;;;10.25;;
17872;SDS011;36318;42.620;23.338;2022-08-30T13:15:10;15.10;;;10.93;;
17872;SDS011;36318;42.620;23.338;2022-08-30T13:17:40;14.88;;;9.70;;
17872;SDS011;36318;42.620;23.338;2022-08-30T13:20:19;12.25;;;10.05;;
17872;SDS011;36318;42.620;23.338;2022-08-30T13:23:03;13.85;;;10.70;;
17872;SDS011;36318;42.620;23.338;2022-08-30T13:25:32;16.80;;;10.30;;
17872;SDS011;36318;42.620;23.338;2022-08-30T13:28:00;14.82;;;10.88;;
17872;SDS011;36318;42.620;23.338;2022-08-30T13:30:30;15.00;;;10.02;;
17872;SDS011;36318;42.620;23.338;2022-08-30T13:32:57;12.10;;;10.40;;
17872;SDS011;36318;42.620;23.338;2022-08-30T13:35:25;14.50;;;10.55;;
17872;SDS011;36318;42.620;23.338;2022-08-30T13:37:52;13.45;;;10.30;;
17872;SDS011;36318;42.620;23.338;2022-08-30T13:40:21;18.85;;;15.55;;
17872;SDS011;36318;42.620;23.338;2022-08-30T13:42:48;11.32;;;10.20;;
17872;SDS011;36318;42.620;23.338;2022-08-30T13:45:15;14.75;;;10.05;;
17872;SDS011;36318;42.620;23.338;2022-08-30T13:47:45;16.65;;;10.45;;
17872;SDS011;36318;42.620;23.338;2022-08-30T13:50:13;11.82;;;9.63;;
17872;SDS011;36318;42.620;23.338;2022-08-30T13:52:41;12.38;;;10.40;;
17872;SDS011;36318;42.620;23.338;2022-08-30T13:55:08;10.68;;;9.68;;
17872;SDS011;36318;42.620;23.338;2022-08-30T13:57:36;18.02;;;9.77;;
17872;SDS011;36318;42.620;23.338;2022-08-30T14:00:04;15.07;;;10.43;;
17872;SDS011;36318;42.620;23.338;2022-08-30T14:02:34;12.68;;;10.27;;
17872;SDS011;36318;42.620;23.338;2022-08-30T14:05:03;17.10;;;10.82;;
17872;SDS011;36318;42.620;23.338;2022-08-30T14:07:31;12.32;;;9.82;;
17872;SDS011;36318;42.620;23.338;2022-08-30T14:09:58;18.90;;;9.88;;
17872;SDS011;36318;42.620;23.338;2022-08-30T14:12:26;14.07;;;10.75;;
17872;SDS011;36318;42.620;23.338;2022-08-30T14:14:53;13.65;;;10.50;;
17872;SDS011;36318;42.620;23.338;2022-08-30T14:17:20;11.48;;;10.35;;
17872;SDS011;36318;42.620;23.338;2022-08-30T14:19:53;16.20;;;10.88;;
17872;SDS011;36318;42.620;23.338;2022-08-30T14:22:21;12.55;;;10.88;;
17872;SDS011;36318;42.620;23.338;2022-08-30T14:24:49;16.23;;;11.40;;
17872;SDS011;36318;42.620;23.338;2022-08-30T14:27:15;12.27;;;11.00;;
17872;SDS011;36318;42.620;23.338;2022-08-30T14:29:42;15.77;;;10.90;;
17872;SDS011;36318;42.620;23.338;2022-08-30T14:32:09;17.10;;;11.05;;
17872;SDS011;36318;42.620;23.338;2022-08-30T14:34:36;18.77;;;10.13;;
17872;SDS011;36318;42.620;23.338;2022-08-30T14:37:03;14.80;;;10.43;;
17872;SDS011;36318;42.620;23.338;2022-08-30T14:39:32;11.77;;;10.60;;
17872;SDS011;36318;42.620;23.338;2022-08-30T14:42:17;16.27;;;11.75;;
17872;SDS011;36318;42.620;23.338;2022-08-30T14:44:45;24.02;;;19.33;;
17872;SDS011;36318;42.620;23.338;2022-08-30T14:47:11;21.20;;;11.18;;
17872;SDS011;36318;42.620;23.338;2022-08-30T14:49:38;13.70;;;10.57;;
17872;SDS011;36318;42.620;23.338;2022-08-30T14:52:05;13.10;;;11.77;;
17872;SDS011;36318;42.620;23.338;2022-08-30T14:54:33;14.15;;;10.88;;